createdAt,value
2023-08-23T00:02:01.169Z,101224.16
2023-08-23T00:05:03.219Z,101221.06
2023-08-23T00:08:05.578Z,101226.59
2023-08-23T00:11:07.663Z,101232.09
2023-08-23T00:14:09.687Z,101229.84
2023-08-23T00:17:11.789Z,101233.19
2023-08-23T00:20:14.150Z,101225.19
2023-08-23T00:23:16.181Z,101218.59
2023-08-23T00:26:18.264Z,101218.31
2023-08-23T00:29:20.249Z,101217.75
2023-08-23T00:32:22.308Z,101210.31
2023-08-23T00:35:24.798Z,101207.56
2023-08-23T00:38:26.926Z,101210.31
2023-08-23T00:41:29.072Z,101212.25
2023-08-23T00:44:31.098Z,101203.34
2023-08-23T00:47:33.142Z,101217.88
2023-08-23T00:50:35.902Z,101202.19
2023-08-23T00:53:38.827Z,101203.03
2023-08-23T00:56:41.394Z,101207.69
2023-08-23T00:59:43.603Z,101207.13
2023-08-23T01:02:46.061Z,101206.53
2023-08-23T01:06:22.582Z,101212.53
2023-08-23T01:09:28.126Z,101214.47
2023-08-23T01:12:48.785Z,101211.72
2023-08-23T01:15:55.509Z,101213.38
2023-08-23T01:18:59.554Z,101215.88
2023-08-23T01:22:05.075Z,101216.47
2023-08-23T01:25:07.578Z,101216.47
2023-08-23T01:28:09.666Z,101218.38
2023-08-23T01:31:13.357Z,101222.78
2023-08-23T01:34:26.877Z,101216.47
2023-08-23T01:37:31.883Z,101212.88
2023-08-23T01:40:34.632Z,101210.63
2023-08-23T01:43:36.662Z,101209.28
2023-08-23T01:46:39.242Z,101197.09
2023-08-23T01:49:41.501Z,101199.59
2023-08-23T01:52:43.527Z,101195.19
2023-08-23T01:55:45.677Z,101195.19
2023-08-23T01:58:47.736Z,101196.84
2023-08-23T02:01:49.750Z,101199.59
2023-08-23T02:04:51.980Z,101194.34
2023-08-23T02:07:54.039Z,101193.84
2023-08-23T02:10:56.494Z,101195.19
2023-08-23T02:13:58.745Z,101192.44
2023-08-23T02:17:05.644Z,101198.78
2023-08-23T02:20:08.140Z,101200.09
2023-08-23T02:23:10.544Z,101198.69
2023-08-23T02:26:12.652Z,101195.13
2023-08-23T02:29:14.717Z,101196.44
2023-08-23T02:32:17.271Z,101197.88
2023-08-23T02:35:19.331Z,101197.28
2023-08-23T02:38:21.497Z,101209.94
2023-08-23T02:41:23.710Z,101211.63
2023-08-23T02:44:27.554Z,101212.19
2023-08-23T02:47:29.664Z,101217.97
2023-08-23T02:50:31.697Z,101223.47
2023-08-23T02:53:33.852Z,101213.53
2023-08-23T02:56:37.038Z,101214.88
2023-08-23T02:59:40.788Z,101218.22
2023-08-23T03:02:42.896Z,101212.97
2023-08-23T03:05:59.313Z,101211.31
2023-08-23T03:09:01.404Z,101213.44
2023-08-23T03:12:03.646Z,101216.69
2023-08-23T03:15:06.528Z,101204.59
2023-08-23T03:18:08.869Z,101205.47
2023-08-23T03:21:10.980Z,101200.78
2023-08-23T03:24:15.400Z,101199.94
2023-08-23T03:27:19.940Z,101200.19
2023-08-23T03:30:22.748Z,101207.63
2023-08-23T03:33:24.911Z,101219.44
2023-08-23T03:36:26.982Z,101210.09
2023-08-23T03:39:29.074Z,101202.25
2023-08-23T03:42:31.129Z,101190.50
2023-08-23T03:45:35.247Z,101201.00
2023-08-23T03:48:37.559Z,101196.59
2023-08-23T03:51:39.609Z,101188.34
2023-08-23T03:54:41.932Z,101191.91
2023-08-23T03:57:44.026Z,101192.75
2023-08-23T04:00:51.019Z,101207.34
2023-08-23T04:03:53.213Z,101206.19
2023-08-23T04:06:55.633Z,101213.88
2023-08-23T04:09:57.676Z,101206.44
2023-08-23T04:12:59.825Z,101195.50
2023-08-23T04:16:02.032Z,101188.41
2023-08-23T04:19:04.249Z,101182.69
2023-08-23T04:22:06.350Z,101181.34
2023-08-23T04:25:09.027Z,101191.50
2023-08-23T04:28:11.182Z,101199.75
2023-08-23T04:31:13.322Z,101187.41
2023-08-23T04:34:22.413Z,101189.34
2023-08-23T04:37:24.533Z,101189.00
2023-08-23T04:40:26.791Z,101190.44
2023-08-23T04:43:30.637Z,101187.41
2023-08-23T04:46:33.034Z,101192.69
2023-08-23T04:49:35.030Z,101194.34
2023-08-23T04:52:37.120Z,101195.53
2023-08-23T04:55:39.212Z,101208.78
2023-08-23T04:58:41.231Z,101204.44
2023-08-23T05:01:45.342Z,101214.03
2023-08-23T05:04:47.688Z,101210.56
2023-08-23T05:07:50.885Z,101223.09
2023-08-23T05:10:55.140Z,101223.56
2023-08-23T05:13:57.250Z,101216.53
2023-08-23T05:17:00.186Z,101223.97
2023-08-23T05:20:02.154Z,101211.28
2023-08-23T05:23:04.731Z,101215.59
2023-08-23T05:26:06.941Z,101224.66
2023-08-23T05:29:09.111Z,101206.44
2023-08-23T05:32:11.899Z,101212.78
2023-08-23T05:35:14.319Z,101207.28
2023-08-23T05:38:16.784Z,101200.94
2023-08-23T05:41:19.097Z,101199.28
2023-08-23T05:44:21.186Z,101192.91
2023-08-23T05:47:25.067Z,101192.78
2023-08-23T05:50:27.357Z,101183.34
2023-08-23T05:53:29.486Z,101172.06
2023-08-23T05:56:31.413Z,101175.16
2023-08-23T05:59:34.652Z,101177.41
2023-08-23T06:02:37.179Z,101184.31
2023-08-23T06:05:39.359Z,101198.19
2023-08-23T06:08:41.493Z,101196.31
2023-08-23T06:11:43.983Z,101191.06
2023-08-23T06:14:46.208Z,101199.78
2023-08-23T06:17:48.735Z,101196.44
2023-08-23T06:20:51.246Z,101192.59
2023-08-23T06:23:53.535Z,101200.69
2023-08-23T06:26:55.697Z,101199.06
2023-08-23T06:29:57.953Z,101208.75
2023-08-23T06:33:00.076Z,101217.34
2023-08-23T06:36:02.188Z,101223.19
2023-08-23T06:39:05.021Z,101223.97
2023-08-23T06:42:07.173Z,101234.66
2023-08-23T06:45:10.933Z,101226.97
2023-08-23T06:48:16.334Z,101216.59
2023-08-23T06:51:18.744Z,101217.56
2023-08-23T06:54:21.035Z,101233.13
2023-08-23T06:57:30.155Z,101228.44
2023-08-23T07:00:32.299Z,101237.03
2023-08-23T07:03:34.617Z,101234.03
2023-08-23T07:06:36.906Z,101229.09
2023-08-23T07:09:39.079Z,101241.28
2023-08-23T07:12:41.232Z,101250.47
2023-08-23T07:15:43.450Z,101258.22
2023-08-23T07:18:45.532Z,101258.78
2023-08-23T07:21:47.727Z,101258.78
2023-08-23T07:24:49.910Z,101265.09
2023-08-23T07:27:51.930Z,101261.16
2023-08-23T07:30:58.531Z,101267.47
2023-08-23T07:34:00.997Z,101279.22
2023-08-23T07:37:03.213Z,101291.13
2023-08-23T07:40:07.670Z,101283.91
2023-08-23T07:43:09.965Z,101296.66
2023-08-23T07:46:12.034Z,101293.88
2023-08-23T07:49:17.603Z,101299.72
2023-08-23T07:52:19.759Z,101299.41
2023-08-23T07:55:21.882Z,101305.66
2023-08-23T07:58:24.019Z,101307.91
2023-08-23T08:01:28.401Z,101309.91
2023-08-23T08:04:31.321Z,101303.31
2023-08-23T08:08:06.063Z,101302.91
2023-08-23T08:10:55.446Z,101323.38
2023-08-23T08:13:57.772Z,101310.09
2023-08-23T08:17:00.010Z,101308.16
2023-08-23T08:20:06.798Z,101300.81
2023-08-23T08:23:08.858Z,101300.81
2023-08-23T08:26:12.945Z,101287.25
2023-08-23T08:29:15.024Z,101282.91
2023-08-23T08:32:17.157Z,101288.03
2023-08-23T08:35:19.883Z,101278.22
2023-08-23T08:38:23.814Z,101267.47
2023-08-23T08:41:26.441Z,101266.19
2023-08-23T08:44:28.896Z,101255.94
2023-08-23T08:47:31.107Z,101248.47
2023-08-23T08:50:34.653Z,101241.03
2023-08-23T08:53:38.264Z,101237.00
2023-08-23T08:56:41.837Z,101213.81
2023-08-23T08:59:46.795Z,101213.63
2023-08-23T09:02:53.152Z,101212.28
2023-08-23T09:05:55.410Z,101192.78
2023-08-23T09:09:00.030Z,101182.63
2023-08-23T09:12:02.280Z,101171.66
2023-08-23T09:15:08.297Z,101161.75
2023-08-23T09:18:11.644Z,101154.16
2023-08-23T09:21:14.695Z,101139.56
2023-08-23T09:24:18.068Z,101129.72
2023-08-23T09:27:36.929Z,101131.75
2023-08-23T09:30:41.286Z,101121.84
2023-08-23T09:33:43.846Z,101126.06
2023-08-23T09:36:46.766Z,101119.47
2023-08-23T09:39:48.897Z,101106.84
2023-08-23T09:42:52.265Z,101097.19
2023-08-23T09:45:54.721Z,101089.16
2023-08-23T09:48:58.481Z,101090.63
2023-08-23T09:52:04.302Z,101091.78
2023-08-23T09:55:15.492Z,101094.03
2023-08-23T09:58:18.634Z,101077.47
2023-08-23T10:01:21.562Z,101074.41
2023-08-23T10:04:31.023Z,101088.44
2023-08-23T10:07:37.001Z,101089.25
2023-08-23T10:10:43.606Z,101097.56
2023-08-23T10:13:48.379Z,101110.56
2023-08-23T10:16:51.749Z,101114.78
2023-08-23T10:19:54.249Z,101124.16
2023-08-23T10:22:59.272Z,101116.75
2023-08-23T10:26:03.439Z,101125.53
2023-08-23T10:29:10.902Z,101125.06
2023-08-23T10:32:13.000Z,101127.41
2023-08-23T10:35:33.271Z,101114.97
2023-08-23T10:38:36.082Z,101111.88
2023-08-23T10:41:38.384Z,101112.09
2023-08-23T10:44:48.409Z,101137.56
2023-08-23T10:47:52.453Z,101114.00
2023-08-23T10:50:55.832Z,101129.47
2023-08-23T10:53:58.980Z,101120.03
2023-08-23T10:57:01.226Z,101116.97
2023-08-23T11:00:04.748Z,101120.63
2023-08-23T11:03:08.293Z,101117.81
2023-08-23T11:06:10.829Z,101106.47
2023-08-23T11:09:13.021Z,101107.28
2023-08-23T11:12:15.008Z,101110.69
2023-08-23T11:15:17.168Z,101106.53
2023-08-23T11:18:19.263Z,101106.78
2023-08-23T11:21:22.075Z,101104.88
2023-08-23T11:24:24.490Z,101099.38
2023-08-23T11:27:26.473Z,101095.25
2023-08-23T11:30:28.716Z,101091.31
2023-08-23T11:33:33.586Z,101082.75
2023-08-23T11:36:37.504Z,101077.22
2023-08-23T11:39:39.575Z,101081.69
2023-08-23T11:42:41.946Z,101081.72
2023-08-23T11:45:44.169Z,101071.75
2023-08-23T11:48:46.326Z,101063.69
2023-08-23T11:51:51.721Z,101057.31
2023-08-23T11:54:54.948Z,101059.56
2023-08-23T11:57:57.281Z,101045.69
2023-08-23T12:00:59.565Z,101054.59
2023-08-23T12:04:02.231Z,101050.97
2023-08-23T12:07:04.249Z,101052.63
2023-08-23T12:10:10.000Z,101060.94
2023-08-23T12:13:13.432Z,101046.81
2023-08-23T12:16:15.457Z,101046.00
2023-08-23T12:19:30.704Z,101053.72
2023-08-23T12:22:33.049Z,101045.41
2023-08-23T12:25:35.102Z,101038.75
2023-08-23T12:28:38.846Z,101027.44
2023-08-23T12:31:40.927Z,101036.28
2023-08-23T12:34:42.884Z,101018.00
2023-08-23T12:37:44.913Z,101022.97
2023-08-23T12:40:47.024Z,101022.13
2023-08-23T12:43:49.014Z,101010.81
2023-08-23T12:46:51.230Z,101001.13
2023-08-23T12:49:53.329Z,101008.88
2023-08-23T12:52:55.432Z,101004.13
2023-08-23T12:55:57.777Z,101009.66
2023-08-23T12:59:00.268Z,101013.56
2023-08-23T13:02:02.873Z,101010.78
2023-08-23T13:05:05.309Z,101006.06
2023-08-23T13:08:07.673Z,100998.31
2023-08-23T13:11:09.991Z,101004.31
2023-08-23T13:14:12.085Z,101002.16
2023-08-23T13:17:14.588Z,100985.03
2023-08-23T13:20:16.794Z,100987.00
2023-08-23T13:23:18.897Z,100981.75
2023-08-23T13:26:20.937Z,100986.44
2023-08-23T13:29:23.108Z,100993.91
2023-08-23T13:32:27.678Z,101001.06
2023-08-23T13:35:30.202Z,101003.31
2023-08-23T13:38:32.434Z,101002.47
2023-08-23T13:41:34.746Z,100996.91
2023-08-23T13:44:36.861Z,100994.72
2023-08-23T13:47:39.402Z,101000.25
2023-08-23T13:50:41.550Z,100998.31
2023-08-23T13:53:47.318Z,100998.59
2023-08-23T13:56:49.464Z,100985.31
2023-08-23T13:59:51.459Z,100991.13
2023-08-23T14:02:53.661Z,100994.19
2023-08-23T14:05:59.833Z,100997.22
2023-08-23T14:09:01.940Z,100990.03
2023-08-23T14:12:04.361Z,100991.38
2023-08-23T14:15:07.035Z,100987.50
2023-08-23T14:18:09.266Z,100972.59
2023-08-23T14:21:11.404Z,100973.41
2023-08-23T14:24:14.574Z,100965.44
2023-08-23T14:27:16.897Z,100961.84
2023-08-23T14:30:19.441Z,100962.66
2023-08-23T14:33:21.577Z,100963.47
2023-08-23T14:36:23.816Z,100959.91
2023-08-23T14:39:26.176Z,100960.44
2023-08-23T14:42:28.596Z,100965.97
2023-08-23T14:45:30.694Z,100966.81
2023-08-23T14:48:32.810Z,100972.88
2023-08-23T14:51:35.110Z,100971.81
2023-08-23T14:54:37.219Z,100962.09
2023-08-23T14:57:39.453Z,100967.91
2023-08-23T15:00:41.423Z,100971.53
2023-08-23T15:03:43.899Z,100968.50
2023-08-23T15:06:46.079Z,100970.41
2023-08-23T15:09:48.598Z,100968.47
2023-08-23T15:12:50.667Z,100965.16
2023-08-23T15:16:03.002Z,100960.16
2023-08-23T15:19:05.252Z,100951.31
2023-08-23T15:22:07.319Z,100961.56
2023-08-23T15:25:10.878Z,100956.03
2023-08-23T15:28:13.519Z,100957.38
2023-08-23T15:31:15.566Z,100968.16
2023-08-23T15:34:17.612Z,100972.03
2023-08-23T15:37:21.438Z,100972.56
2023-08-23T15:40:24.106Z,100958.16
2023-08-23T15:43:26.248Z,100961.22
2023-08-23T15:46:28.438Z,100974.47
2023-08-23T15:49:30.672Z,100979.41
2023-08-23T15:52:33.189Z,100982.47
2023-08-23T15:55:35.481Z,100979.94
2023-08-23T15:58:38.226Z,100982.44
2023-08-23T16:01:40.700Z,100977.72
2023-08-23T16:04:45.328Z,100987.72
2023-08-23T16:07:50.743Z,101000.38
2023-08-23T16:10:53.310Z,100987.63
2023-08-23T16:13:55.414Z,100982.09
2023-08-23T16:16:59.716Z,100994.50
2023-08-23T16:20:01.839Z,101002.22
2023-08-23T16:23:04.005Z,100997.81
2023-08-23T16:26:06.171Z,100999.75
2023-08-23T16:29:08.346Z,100996.16
2023-08-23T16:32:10.368Z,100994.75
2023-08-23T16:35:12.574Z,100995.19
2023-08-23T16:38:14.833Z,100982.78
2023-08-23T16:41:17.157Z,100991.06
2023-08-23T16:44:19.192Z,100997.66
2023-08-23T16:47:23.272Z,100989.38
2023-08-23T16:50:27.189Z,100981.91
2023-08-23T16:53:30.250Z,100983.25
2023-08-23T16:56:32.375Z,100995.13
2023-08-23T16:59:34.388Z,100982.13
2023-08-23T17:02:39.770Z,100970.50
2023-08-23T17:05:41.932Z,100980.13
2023-08-23T17:08:44.052Z,100983.69
2023-08-23T17:11:46.056Z,100963.47
2023-08-23T17:14:48.095Z,100994.16
2023-08-23T17:17:50.463Z,100989.75
2023-08-23T17:21:02.372Z,100988.88
2023-08-23T17:24:04.664Z,100988.63
2023-08-23T17:27:07.011Z,100993.00
2023-08-23T17:30:09.422Z,100983.03
2023-08-23T17:33:11.625Z,100988.25
2023-08-23T17:36:13.821Z,100996.81
2023-08-23T17:39:18.351Z,100992.41
2023-08-23T17:42:20.695Z,100993.72
2023-08-23T17:45:22.788Z,101001.19
2023-08-23T17:48:24.840Z,101007.81
2023-08-23T17:51:27.101Z,101014.69
2023-08-23T17:54:29.310Z,101027.06
2023-08-23T17:57:31.416Z,101029.28
2023-08-23T18:00:34.198Z,101039.16
2023-08-23T18:03:36.423Z,101043.00
2023-08-23T18:06:38.461Z,101057.06
2023-08-23T18:09:40.586Z,101048.75
2023-08-23T18:12:42.806Z,101059.78
2023-08-23T18:15:47.608Z,101071.63
2023-08-23T18:18:49.642Z,101059.47
2023-08-23T18:21:51.669Z,101064.97
2023-08-23T18:24:53.777Z,101067.75
2023-08-23T18:27:55.854Z,101063.56
2023-08-23T18:30:58.024Z,101055.84
2023-08-23T18:34:00.106Z,101053.41
2023-08-23T18:37:02.095Z,101050.63
2023-08-23T18:40:05.818Z,101045.63
2023-08-23T18:43:08.031Z,101045.31
2023-08-23T18:46:10.400Z,101041.97
2023-08-23T18:49:12.592Z,101033.16
2023-08-23T18:52:14.601Z,101034.50
2023-08-23T18:55:16.767Z,101032.00
2023-08-23T18:58:18.990Z,101038.06
2023-08-23T19:01:21.065Z,101042.72
2023-08-23T19:04:23.317Z,101048.22
2023-08-23T19:07:25.365Z,101057.59
2023-08-23T19:10:27.433Z,101053.75
2023-08-23T19:13:29.485Z,101057.03
2023-08-23T19:16:31.561Z,101072.50
2023-08-23T19:19:34.349Z,101060.84
2023-08-23T19:22:36.699Z,101071.34
2023-08-23T19:25:38.776Z,101084.31
2023-08-23T19:28:40.921Z,101076.47
2023-08-23T19:31:57.636Z,101070.97
2023-08-23T19:34:59.755Z,101057.16
2023-08-23T19:38:01.749Z,101036.84
2023-08-23T19:41:03.923Z,101065.19
2023-08-23T19:44:06.131Z,101070.41
2023-08-23T19:47:08.723Z,101074.81
2023-08-23T19:50:10.791Z,101074.00
2023-08-23T19:53:12.948Z,101077.56
2023-08-23T19:56:15.062Z,101085.84
2023-08-23T19:59:17.511Z,101086.94
2023-08-23T20:02:19.564Z,101089.69
2023-08-23T20:05:22.602Z,101085.00
2023-08-23T20:08:25.021Z,101090.53
2023-08-23T20:11:27.122Z,101097.34
2023-08-23T20:14:32.252Z,101097.63
2023-08-23T20:17:34.861Z,101090.38
2023-08-23T20:20:37.263Z,101089.59
2023-08-23T20:23:39.402Z,101085.13
2023-08-23T20:26:41.737Z,101096.47
2023-08-23T20:29:45.249Z,101099.75
2023-08-23T20:32:48.979Z,101094.22
2023-08-23T20:35:52.585Z,101085.63
2023-08-23T20:38:54.964Z,101098.91
2023-08-23T20:41:57.100Z,101101.66
2023-08-23T20:44:59.196Z,101098.06
2023-08-23T20:48:02.424Z,101105.25
2023-08-23T20:51:05.138Z,101093.63
2023-08-23T20:54:07.226Z,101096.66
2023-08-23T20:57:10.124Z,101098.59
2023-08-23T21:00:12.419Z,101092.22
2023-08-23T21:03:14.559Z,101090.00
2023-08-23T21:06:16.765Z,101085.31
2023-08-23T21:09:19.014Z,101083.31
2023-08-23T21:12:21.267Z,101087.75
2023-08-23T21:15:23.413Z,101092.16
2023-08-23T21:18:26.822Z,101078.66
2023-08-23T21:21:29.508Z,101080.56
2023-08-23T21:24:31.707Z,101082.47
2023-08-23T21:27:33.941Z,101093.50
2023-08-23T21:30:36.381Z,101086.94
2023-08-23T21:33:38.600Z,101086.06
2023-08-23T21:36:41.173Z,101086.59
2023-08-23T21:39:44.119Z,101087.16
2023-08-23T21:42:46.490Z,101093.78
2023-08-23T21:45:48.546Z,101101.47
2023-08-23T21:48:50.671Z,101098.66
2023-08-23T21:51:52.745Z,101096.66
2023-08-23T21:54:54.889Z,101096.41
2023-08-23T21:57:57.617Z,101099.75
2023-08-23T22:01:03.890Z,101099.75
2023-08-23T22:04:06.257Z,101092.53
2023-08-23T22:07:08.352Z,101093.38
2023-08-23T22:10:10.486Z,101088.47
2023-08-23T22:13:12.583Z,101076.59
2023-08-23T22:16:14.922Z,101083.22
2023-08-23T22:19:17.068Z,101071.88
2023-08-23T22:22:19.216Z,101087.03
2023-08-23T22:25:21.435Z,101090.63
2023-08-23T22:28:23.546Z,101094.47
2023-08-23T22:31:26.227Z,101089.22
2023-08-23T22:34:28.266Z,101094.97
2023-08-23T22:37:30.260Z,101102.41
2023-08-23T22:40:32.714Z,101090.25
2023-08-23T22:43:34.883Z,101092.41
2023-08-23T22:46:37.602Z,101107.59
2023-08-23T22:49:39.796Z,101097.09
2023-08-23T22:52:42.788Z,101104.84
2023-08-23T22:55:44.858Z,101104.84
2023-08-23T22:58:47.060Z,101108.44
2023-08-23T23:01:49.283Z,101102.09
2023-08-23T23:04:52.316Z,101104.84
2023-08-23T23:07:54.423Z,101103.19
2023-08-23T23:11:02.227Z,101107.03
2023-08-23T23:14:04.320Z,101105.34
2023-08-23T23:17:06.486Z,101102.88
2023-08-23T23:20:16.843Z,101107.56
2023-08-23T23:23:19.762Z,101105.63
2023-08-23T23:26:21.837Z,101101.22
2023-08-23T23:29:23.977Z,101094.50
2023-08-23T23:32:26.123Z,101106.13
2023-08-23T23:35:28.279Z,101108.06
2023-08-23T23:38:30.734Z,101115.22
2023-08-23T23:41:32.917Z,101118.81
2023-08-23T23:44:35.150Z,101116.88
2023-08-23T23:47:37.150Z,101112.22
2023-08-23T23:50:39.379Z,101105.03
2023-08-23T23:53:41.446Z,101111.63
2023-08-23T23:56:43.487Z,101103.88
2023-08-23T23:59:45.555Z,101105.53
